createdAt,value
2022-12-31T00:07:47.480Z,5.67
2022-12-31T00:18:10.111Z,4.80
2022-12-31T00:28:31.688Z,6.28
2022-12-31T00:38:54.832Z,5.57
2022-12-31T00:49:16.490Z,6.82
2022-12-31T00:59:38.009Z,5.93
2022-12-31T01:09:59.474Z,6.73
2022-12-31T01:20:20.965Z,7.40
2022-12-31T01:30:42.449Z,8.07
2022-12-31T01:41:05.161Z,7.80
2022-12-31T01:51:30.710Z,6.80
2022-12-31T02:01:52.844Z,6.93
2022-12-31T02:12:14.742Z,6.68
2022-12-31T02:33:14.268Z,6.68
2022-12-31T02:43:35.805Z,5.22
2022-12-31T02:54:03.224Z,4.40
2022-12-31T03:04:32.310Z,5.68
2022-12-31T03:14:54.067Z,4.90
2022-12-31T03:25:33.917Z,2.75
2022-12-31T03:35:55.459Z,4.60
2022-12-31T03:46:16.974Z,3.70
2022-12-31T03:56:38.484Z,2.53
2022-12-31T04:07:00.398Z,2.13
2022-12-31T04:27:46.057Z,0.80
2022-12-31T04:38:07.569Z,1.63
2022-12-31T04:48:29.101Z,3.23
2022-12-31T04:58:50.838Z,0.90
2022-12-31T05:09:12.357Z,1.05
2022-12-31T05:19:33.845Z,1.17
2022-12-31T05:29:55.383Z,0.80
2022-12-31T05:40:17.147Z,0.82
2022-12-31T06:01:00.167Z,2.77
2022-12-31T06:11:21.790Z,6.45
2022-12-31T06:21:43.308Z,4.47
2022-12-31T06:32:05.204Z,2.30
2022-12-31T06:52:50.142Z,1.85
2022-12-31T07:03:14.645Z,3.10
2022-12-31T07:13:50.781Z,4.47
2022-12-31T07:24:12.962Z,5.25
2022-12-31T07:34:54.517Z,4.70
2022-12-31T07:45:30.238Z,2.17
2022-12-31T07:55:58.450Z,5.05
2022-12-31T08:06:52.158Z,4.88
2022-12-31T08:17:16.391Z,3.50
2022-12-31T08:28:14.617Z,5.28
2022-12-31T08:39:02.962Z,4.20
2022-12-31T08:49:29.255Z,3.45
2022-12-31T08:59:50.996Z,2.75
2022-12-31T09:10:28.442Z,2.78
2022-12-31T09:20:50.362Z,7.07
2022-12-31T09:42:01.760Z,4.03
2022-12-31T09:52:55.210Z,2.72
2022-12-31T10:03:26.775Z,1.70
2022-12-31T10:14:21.856Z,1.40
2022-12-31T10:24:43.398Z,2.45
2022-12-31T10:35:13.896Z,0.70
2022-12-31T10:45:48.133Z,0.88
2022-12-31T14:26:33.716Z,2.15
2022-12-31T14:37:04.256Z,1.05
2022-12-31T14:47:38.026Z,0.95
2022-12-31T14:58:27.270Z,3.53
2022-12-31T15:08:49.476Z,1.50
2022-12-31T15:19:16.828Z,2.33
2022-12-31T15:29:45.508Z,1.20
2022-12-31T15:40:18.061Z,2.63
2022-12-31T15:50:41.770Z,4.38
2022-12-31T16:01:24.931Z,4.93
2022-12-31T16:11:46.725Z,7.05
2022-12-31T16:32:38.282Z,8.15
2022-12-31T16:43:00.476Z,7.07
2022-12-31T16:53:26.899Z,8.00
2022-12-31T17:03:53.533Z,6.85
2022-12-31T17:14:17.571Z,5.45
2022-12-31T22:26:07.726Z,7.55
2022-12-31T22:36:29.241Z,12.23
2022-12-31T22:46:50.858Z,11.60
